createdAt,value
2024-03-24T00:00:38.358Z,435.00
2024-03-24T00:01:38.334Z,434.00
2024-03-24T00:02:38.320Z,435.00
2024-03-24T00:03:38.298Z,434.00
2024-03-24T00:04:39.089Z,434.00
2024-03-24T00:05:38.361Z,435.00
2024-03-24T00:06:38.287Z,436.00
2024-03-24T00:07:38.247Z,435.00
2024-03-24T00:08:38.232Z,435.00
2024-03-24T00:09:38.214Z,437.00
2024-03-24T00:10:38.203Z,437.00
2024-03-24T00:11:38.189Z,437.00
2024-03-24T00:12:38.187Z,435.00
2024-03-24T00:13:38.188Z,435.00
2024-03-24T00:14:38.179Z,435.00
2024-03-24T00:15:38.167Z,433.00
2024-03-24T00:16:38.163Z,432.00
2024-03-24T00:17:38.148Z,433.00
2024-03-24T00:18:38.146Z,433.00
2024-03-24T00:19:38.143Z,431.00
2024-03-24T00:20:38.117Z,430.00
2024-03-24T00:21:38.125Z,431.00
2024-03-24T00:22:38.109Z,431.00
2024-03-24T00:23:38.158Z,431.00
2024-03-24T00:24:38.207Z,431.00
2024-03-24T00:25:38.273Z,431.00
2024-03-24T00:26:38.332Z,431.00
2024-03-24T00:27:38.403Z,431.00
2024-03-24T00:28:39.201Z,432.00
2024-03-24T00:29:38.502Z,433.00
2024-03-24T00:30:38.502Z,432.00
2024-03-24T00:31:38.523Z,433.00
2024-03-24T00:32:38.540Z,433.00
2024-03-24T00:33:38.549Z,432.00
2024-03-24T00:34:38.560Z,433.00
2024-03-24T00:35:38.587Z,433.00
2024-03-24T00:36:38.640Z,433.00
2024-03-24T00:37:38.704Z,433.00
2024-03-24T00:38:38.735Z,431.00
2024-03-24T00:39:39.531Z,431.00
2024-03-24T00:40:38.758Z,430.00
2024-03-24T00:41:38.770Z,431.00
2024-03-24T00:42:38.793Z,431.00
2024-03-24T00:43:38.800Z,428.00
2024-03-24T00:44:38.817Z,429.00
2024-03-24T00:45:38.837Z,429.00
2024-03-24T00:46:38.898Z,430.00
2024-03-24T00:47:38.945Z,430.00
2024-03-24T00:48:39.008Z,431.00
2024-03-24T00:49:39.076Z,431.00
2024-03-24T00:50:39.149Z,430.00
2024-03-24T00:51:39.206Z,430.00
2024-03-24T00:52:39.257Z,429.00
2024-03-24T00:53:39.309Z,428.00
2024-03-24T00:54:39.372Z,426.00
2024-03-24T00:55:39.458Z,428.00
2024-03-24T00:56:39.508Z,429.00
2024-03-24T00:57:39.562Z,429.00
2024-03-24T00:58:39.655Z,431.00
2024-03-24T00:59:39.665Z,430.00
2024-03-24T01:00:39.729Z,427.00
2024-03-24T01:01:39.792Z,425.00
2024-03-24T01:02:39.814Z,425.00
2024-03-24T01:03:39.822Z,426.00
2024-03-24T01:04:39.838Z,429.00
2024-03-24T01:05:39.870Z,430.00
2024-03-24T01:06:39.872Z,431.00
2024-03-24T01:07:39.889Z,429.00
2024-03-24T01:08:39.903Z,429.00
2024-03-24T01:09:39.939Z,428.00
2024-03-24T01:10:39.963Z,427.00
2024-03-24T01:11:39.968Z,427.00
2024-03-24T01:12:40.007Z,428.00
2024-03-24T01:13:39.987Z,429.00
2024-03-24T01:14:40.007Z,430.00
2024-03-24T01:15:40.016Z,429.00
2024-03-24T01:16:40.039Z,428.00
2024-03-24T01:17:40.051Z,430.00
2024-03-24T01:18:40.335Z,431.00
2024-03-24T01:19:40.068Z,428.00
2024-03-24T01:20:40.097Z,427.00
2024-03-24T01:21:40.102Z,428.00
2024-03-24T01:22:40.135Z,427.00
2024-03-24T01:23:40.124Z,430.00
2024-03-24T01:24:40.142Z,429.00
2024-03-24T01:25:40.163Z,428.00
2024-03-24T01:26:40.201Z,428.00
2024-03-24T01:27:40.266Z,427.00
2024-03-24T01:28:40.338Z,427.00
2024-03-24T01:29:40.389Z,426.00
2024-03-24T01:30:40.460Z,424.00
2024-03-24T01:31:40.522Z,426.00
2024-03-24T01:32:40.579Z,426.00
2024-03-24T01:33:40.656Z,426.00
2024-03-24T01:34:40.729Z,425.00
2024-03-24T01:35:40.766Z,426.00
2024-03-24T01:36:40.838Z,427.00
2024-03-24T01:37:40.902Z,428.00
2024-03-24T01:38:40.943Z,430.00
2024-03-24T01:39:41.010Z,428.00
2024-03-24T01:40:41.076Z,427.00
2024-03-24T01:41:41.140Z,428.00
2024-03-24T01:42:41.211Z,429.00
2024-03-24T01:43:41.265Z,430.00
2024-03-24T01:44:41.352Z,430.00
2024-03-24T01:45:41.387Z,430.00
2024-03-24T01:46:41.448Z,431.00
2024-03-24T01:47:41.519Z,432.00
2024-03-24T01:48:41.574Z,432.00
2024-03-24T01:49:41.668Z,428.00
2024-03-24T01:50:41.679Z,426.00
2024-03-24T01:51:41.737Z,425.00
2024-03-24T01:52:42.729Z,427.00
2024-03-24T01:53:41.863Z,428.00
2024-03-24T01:54:41.918Z,430.00
2024-03-24T01:55:41.974Z,428.00
2024-03-24T01:56:42.026Z,427.00
2024-03-24T01:57:42.084Z,427.00
2024-03-24T01:58:42.116Z,425.00
2024-03-24T01:59:42.138Z,425.00
2024-03-24T02:00:42.163Z,425.00
2024-03-24T02:01:42.185Z,423.00
2024-03-24T02:02:42.207Z,425.00
2024-03-24T02:03:42.234Z,428.00
2024-03-24T02:04:42.258Z,429.00
2024-03-24T02:05:42.332Z,432.00
2024-03-24T02:06:42.388Z,433.00
2024-03-24T02:07:42.445Z,434.00
2024-03-24T02:08:42.506Z,434.00
2024-03-24T02:09:42.573Z,435.00
2024-03-24T02:10:42.643Z,436.00
2024-03-24T02:11:42.695Z,436.00
2024-03-24T02:12:42.734Z,436.00
2024-03-24T02:13:42.739Z,433.00
2024-03-24T02:14:42.767Z,433.00
2024-03-24T02:15:42.785Z,432.00
2024-03-24T02:16:42.780Z,433.00
2024-03-24T02:17:42.768Z,433.00
2024-03-24T02:18:42.947Z,434.00
2024-03-24T02:19:42.744Z,433.00
2024-03-24T02:20:42.747Z,436.00
2024-03-24T02:21:42.732Z,437.00
2024-03-24T02:22:42.742Z,435.00
2024-03-24T02:23:42.767Z,435.00
2024-03-24T02:24:42.792Z,433.00
2024-03-24T02:25:42.825Z,431.00
2024-03-24T02:26:42.839Z,429.00
2024-03-24T02:27:42.848Z,428.00
2024-03-24T02:28:42.847Z,426.00
2024-03-24T02:29:42.851Z,425.00
2024-03-24T02:30:42.867Z,426.00
2024-03-24T02:31:42.888Z,427.00
2024-03-24T02:32:42.889Z,429.00
2024-03-24T02:33:42.881Z,429.00
2024-03-24T02:34:42.886Z,428.00
2024-03-24T02:35:42.894Z,430.00
2024-03-24T02:36:42.886Z,430.00
2024-03-24T02:37:42.866Z,428.00
2024-03-24T02:38:42.889Z,426.00
2024-03-24T02:39:42.909Z,426.00
2024-03-24T02:40:43.781Z,427.00
2024-03-24T02:41:42.970Z,429.00
2024-03-24T02:42:43.770Z,427.00
2024-03-24T02:43:43.033Z,425.00
2024-03-24T02:44:43.053Z,425.00
2024-03-24T02:45:43.067Z,426.00
2024-03-24T02:46:43.097Z,426.00
2024-03-24T02:47:43.113Z,425.00
2024-03-24T02:48:43.150Z,426.00
2024-03-24T02:49:43.169Z,426.00
2024-03-24T02:50:43.183Z,426.00
2024-03-24T02:51:43.222Z,426.00
2024-03-24T02:52:43.243Z,425.00
2024-03-24T02:53:43.275Z,427.00
2024-03-24T02:54:43.263Z,428.00
2024-03-24T02:55:43.291Z,428.00
2024-03-24T02:56:43.307Z,429.00
2024-03-24T02:57:43.351Z,428.00
2024-03-24T02:58:43.342Z,426.00
2024-03-24T02:59:43.336Z,426.00
2024-03-24T03:00:43.343Z,427.00
2024-03-24T03:01:43.378Z,428.00
2024-03-24T03:02:43.357Z,429.00
2024-03-24T03:03:43.378Z,429.00
2024-03-24T03:04:43.356Z,428.00
2024-03-24T03:05:43.361Z,426.00
2024-03-24T03:06:43.371Z,426.00
2024-03-24T03:07:43.395Z,426.00
2024-03-24T03:08:43.423Z,426.00
2024-03-24T03:09:43.452Z,426.00
2024-03-24T03:10:43.467Z,428.00
2024-03-24T03:11:43.479Z,428.00
2024-03-24T03:12:43.519Z,428.00
2024-03-24T03:13:43.533Z,428.00
2024-03-24T03:14:43.595Z,430.00
2024-03-24T03:15:43.592Z,429.00
2024-03-24T03:16:43.629Z,428.00
2024-03-24T03:17:43.658Z,428.00
2024-03-24T03:18:43.690Z,427.00
2024-03-24T03:19:43.695Z,426.00
2024-03-24T03:20:43.682Z,428.00
2024-03-24T03:21:43.690Z,429.00
2024-03-24T03:22:43.679Z,431.00
2024-03-24T03:23:43.664Z,433.00
2024-03-24T03:24:43.658Z,431.00
2024-03-24T03:25:43.648Z,431.00
2024-03-24T03:26:43.655Z,431.00
2024-03-24T03:27:43.683Z,431.00
2024-03-24T03:28:43.720Z,431.00
2024-03-24T03:29:43.727Z,432.00
2024-03-24T03:30:43.738Z,434.00
2024-03-24T03:31:43.775Z,436.00
2024-03-24T03:32:43.793Z,436.00
2024-03-24T03:33:43.812Z,436.00
2024-03-24T03:34:43.856Z,436.00
2024-03-24T03:35:43.881Z,436.00
2024-03-24T03:36:43.922Z,436.00
2024-03-24T03:37:43.955Z,438.00
2024-03-24T03:38:43.945Z,439.00
2024-03-24T03:39:43.945Z,437.00
2024-03-24T03:40:43.969Z,435.00
2024-03-24T03:41:43.968Z,435.00
2024-03-24T03:42:43.976Z,436.00
2024-03-24T03:43:43.984Z,437.00
2024-03-24T03:44:43.988Z,435.00
2024-03-24T03:45:43.989Z,434.00
2024-03-24T03:46:43.986Z,435.00
2024-03-24T03:47:43.971Z,435.00
2024-03-24T03:48:43.972Z,435.00
2024-03-24T03:49:43.976Z,434.00
2024-03-24T03:50:44.003Z,434.00
2024-03-24T03:51:44.045Z,434.00
2024-03-24T03:52:44.050Z,433.00
2024-03-24T03:53:44.080Z,433.00
2024-03-24T03:54:44.075Z,433.00
2024-03-24T03:55:44.084Z,431.00
2024-03-24T03:56:44.086Z,432.00
2024-03-24T03:57:44.107Z,436.00
2024-03-24T03:58:44.132Z,436.00
2024-03-24T03:59:44.156Z,436.00
2024-03-24T04:00:44.147Z,436.00
2024-03-24T04:01:44.152Z,435.00
2024-03-24T04:02:44.128Z,433.00
2024-03-24T04:03:44.134Z,431.00
2024-03-24T04:04:44.165Z,431.00
2024-03-24T04:05:44.178Z,430.00
2024-03-24T04:06:44.193Z,431.00
2024-03-24T04:07:44.221Z,431.00
2024-03-24T04:08:44.252Z,432.00
2024-03-24T04:09:44.280Z,431.00
2024-03-24T04:10:44.328Z,431.00
2024-03-24T04:11:44.356Z,432.00
2024-03-24T04:12:44.387Z,434.00
2024-03-24T04:13:44.453Z,432.00
2024-03-24T04:14:44.441Z,430.00
2024-03-24T04:15:44.480Z,430.00
2024-03-24T04:16:44.566Z,430.00
2024-03-24T04:17:44.533Z,431.00
2024-03-24T04:18:44.552Z,430.00
2024-03-24T04:19:44.581Z,430.00
2024-03-24T04:20:44.587Z,430.00
2024-03-24T04:21:44.622Z,430.00
2024-03-24T04:22:44.614Z,429.00
2024-03-24T04:23:44.636Z,428.00
2024-03-24T04:24:44.668Z,427.00
2024-03-24T04:25:44.688Z,426.00
2024-03-24T04:26:44.712Z,427.00
2024-03-24T04:27:44.702Z,427.00
2024-03-24T04:28:44.698Z,425.00
2024-03-24T04:29:44.685Z,424.00
2024-03-24T04:30:44.693Z,424.00
2024-03-24T04:31:44.712Z,425.00
2024-03-24T04:32:44.721Z,427.00
2024-03-24T04:33:44.733Z,427.00
2024-03-24T04:34:44.726Z,427.00
2024-03-24T04:35:44.771Z,426.00
2024-03-24T04:36:44.755Z,425.00
2024-03-24T04:37:44.758Z,425.00
2024-03-24T04:38:44.756Z,426.00
2024-03-24T04:39:44.755Z,428.00
2024-03-24T04:40:52.048Z,436.00
2024-03-24T04:41:52.052Z,435.00
2024-03-24T04:42:52.055Z,432.00
2024-03-24T04:43:52.067Z,429.00
2024-03-24T04:44:52.073Z,430.00
2024-03-24T04:45:52.078Z,430.00
2024-03-24T04:46:52.084Z,429.00
2024-03-24T04:47:52.078Z,428.00
2024-03-24T04:48:52.088Z,428.00
2024-03-24T04:49:52.094Z,429.00
2024-03-24T04:50:52.105Z,429.00
2024-03-24T04:51:52.133Z,428.00
2024-03-24T04:52:52.128Z,429.00
2024-03-24T04:53:52.128Z,431.00
2024-03-24T04:54:52.143Z,431.00
2024-03-24T04:55:52.136Z,432.00
2024-03-24T04:56:52.161Z,433.00
2024-03-24T04:57:52.169Z,434.00
2024-03-24T04:58:52.176Z,435.00
2024-03-24T04:59:52.193Z,435.00
2024-03-24T05:00:52.201Z,435.00
2024-03-24T05:01:52.227Z,434.00
2024-03-24T05:02:52.225Z,434.00
2024-03-24T05:03:52.248Z,434.00
2024-03-24T05:04:52.248Z,435.00
2024-03-24T05:05:52.252Z,434.00
2024-03-24T05:06:52.259Z,433.00
2024-03-24T05:07:52.270Z,433.00
2024-03-24T05:08:52.328Z,433.00
2024-03-24T05:09:52.414Z,431.00
2024-03-24T05:10:52.489Z,428.00
2024-03-24T05:11:52.555Z,426.00
2024-03-24T05:12:52.638Z,430.00
2024-03-24T05:13:52.715Z,431.00
2024-03-24T05:14:52.804Z,432.00
2024-03-24T05:15:52.878Z,432.00
2024-03-24T05:16:52.954Z,433.00
2024-03-24T05:17:53.030Z,435.00
2024-03-24T05:18:53.107Z,436.00
2024-03-24T05:19:53.203Z,437.00
2024-03-24T05:20:53.266Z,435.00
2024-03-24T05:21:53.348Z,437.00
2024-03-24T05:22:53.404Z,439.00
2024-03-24T05:23:53.476Z,441.00
2024-03-24T05:24:53.550Z,439.00
2024-03-24T05:25:53.648Z,439.00
2024-03-24T05:26:53.711Z,440.00
2024-03-24T05:27:53.783Z,441.00
2024-03-24T05:28:55.963Z,441.00
2024-03-24T05:29:53.856Z,443.00
2024-03-24T05:30:53.892Z,444.00
2024-03-24T05:31:53.965Z,443.00
2024-03-24T05:32:54.034Z,441.00
2024-03-24T05:33:54.116Z,442.00
2024-03-24T05:34:54.173Z,440.00
2024-03-24T05:35:54.234Z,438.00
2024-03-24T05:36:54.299Z,440.00
2024-03-24T05:37:54.359Z,442.00
2024-03-24T05:38:54.429Z,444.00
2024-03-24T05:39:54.500Z,446.00
2024-03-24T05:40:54.643Z,446.00
2024-03-24T05:41:54.629Z,444.00
2024-03-24T05:42:54.706Z,445.00
2024-03-24T05:43:54.775Z,444.00
2024-03-24T05:44:54.848Z,442.00
2024-03-24T05:45:54.921Z,440.00
2024-03-24T05:46:54.990Z,442.00
2024-03-24T05:47:55.052Z,442.00
2024-03-24T05:48:55.109Z,443.00
2024-03-24T05:49:55.184Z,444.00
2024-03-24T05:50:55.236Z,443.00
2024-03-24T05:51:55.304Z,443.00
2024-03-24T05:52:55.363Z,444.00
2024-03-24T05:53:55.437Z,444.00
2024-03-24T05:54:55.506Z,442.00
2024-03-24T05:55:55.552Z,442.00
2024-03-24T05:56:55.622Z,441.00
2024-03-24T05:57:55.702Z,442.00
2024-03-24T05:58:55.770Z,442.00
2024-03-24T05:59:55.849Z,439.00
2024-03-24T06:00:55.917Z,439.00
2024-03-24T06:01:55.988Z,440.00
2024-03-24T06:02:56.040Z,441.00
2024-03-24T06:03:56.093Z,444.00
2024-03-24T06:04:56.127Z,444.00
2024-03-24T06:05:56.247Z,446.00
2024-03-24T06:06:56.250Z,446.00
2024-03-24T06:07:56.320Z,443.00
2024-03-24T06:08:56.466Z,444.00
2024-03-24T06:09:56.486Z,444.00
2024-03-24T06:10:56.591Z,442.00
2024-03-24T06:11:56.641Z,441.00
2024-03-24T06:12:56.710Z,441.00
2024-03-24T06:13:56.789Z,442.00
2024-03-24T06:14:56.854Z,443.00
2024-03-24T06:15:56.963Z,443.00
2024-03-24T06:16:57.018Z,443.00
2024-03-24T06:17:57.090Z,444.00
2024-03-24T06:18:57.157Z,445.00
2024-03-24T06:19:57.218Z,445.00
2024-03-24T06:20:57.302Z,441.00
2024-03-24T06:21:57.371Z,442.00
2024-03-24T06:22:57.415Z,443.00
2024-03-24T06:23:57.467Z,444.00
2024-03-24T06:24:57.491Z,445.00
2024-03-24T06:25:57.538Z,442.00
2024-03-24T06:26:57.531Z,439.00
2024-03-24T06:27:57.582Z,438.00
2024-03-24T06:28:57.590Z,438.00
2024-03-24T06:29:57.624Z,439.00
2024-03-24T06:30:57.658Z,440.00
2024-03-24T06:31:57.705Z,440.00
2024-03-24T06:32:57.742Z,439.00
2024-03-24T06:33:57.775Z,438.00
2024-03-24T06:34:57.824Z,438.00
2024-03-24T06:35:57.849Z,438.00
2024-03-24T06:36:57.877Z,436.00
2024-03-24T06:37:57.909Z,436.00
2024-03-24T06:38:57.945Z,437.00
2024-03-24T06:39:58.008Z,435.00
2024-03-24T06:40:58.022Z,435.00
2024-03-24T06:41:58.051Z,433.00
2024-03-24T06:42:58.071Z,432.00
2024-03-24T06:43:58.143Z,431.00
2024-03-24T06:44:58.182Z,430.00
2024-03-24T06:45:58.259Z,427.00
2024-03-24T06:46:58.298Z,426.00
2024-03-24T06:47:58.322Z,426.00
2024-03-24T06:48:58.337Z,426.00
2024-03-24T06:49:58.368Z,427.00
2024-03-24T06:50:58.405Z,428.00
2024-03-24T06:51:58.440Z,429.00
2024-03-24T06:52:58.494Z,431.00
2024-03-24T06:53:58.537Z,433.00
2024-03-24T06:54:58.610Z,432.00
2024-03-24T06:55:58.681Z,435.00
2024-03-24T06:56:58.763Z,436.00
2024-03-24T06:57:58.819Z,437.00
2024-03-24T06:58:58.933Z,438.00
2024-03-24T06:59:58.958Z,439.00
2024-03-24T07:00:59.047Z,440.00
2024-03-24T07:01:59.117Z,438.00
2024-03-24T07:02:59.180Z,436.00
2024-03-24T07:03:59.260Z,436.00
2024-03-24T07:04:59.336Z,436.00
2024-03-24T07:05:59.395Z,438.00
2024-03-24T07:06:59.473Z,439.00
2024-03-24T07:07:59.544Z,437.00
2024-03-24T07:08:59.623Z,437.00
2024-03-24T07:10:02.806Z,435.00
2024-03-24T07:10:59.686Z,436.00
2024-03-24T07:11:59.703Z,437.00
2024-03-24T07:12:59.720Z,435.00
2024-03-24T07:13:59.712Z,436.00
2024-03-24T07:14:59.705Z,438.00
2024-03-24T07:15:59.726Z,441.00
2024-03-24T07:16:59.719Z,441.00
2024-03-24T07:17:59.726Z,441.00
2024-03-24T07:18:59.734Z,440.00
2024-03-24T07:19:59.758Z,439.00
2024-03-24T07:20:59.767Z,439.00
2024-03-24T07:21:59.790Z,437.00
2024-03-24T07:22:59.844Z,434.00
2024-03-24T07:23:59.813Z,434.00
2024-03-24T07:24:59.827Z,435.00
2024-03-24T07:25:59.832Z,436.00
2024-03-24T07:26:59.852Z,437.00
2024-03-24T07:27:59.951Z,438.00
2024-03-24T07:28:59.997Z,439.00
2024-03-24T07:30:00.065Z,440.00
2024-03-24T07:31:00.147Z,438.00
2024-03-24T07:32:00.203Z,441.00
2024-03-24T07:33:00.428Z,440.00
2024-03-24T07:34:00.419Z,443.00
2024-03-24T07:35:00.413Z,443.00
2024-03-24T07:36:00.495Z,443.00
2024-03-24T07:37:00.582Z,441.00
2024-03-24T07:38:00.617Z,442.00
2024-03-24T07:39:00.657Z,440.00
2024-03-24T07:40:00.695Z,438.00
2024-03-24T07:41:00.714Z,440.00
2024-03-24T07:42:00.756Z,441.00
2024-03-24T07:43:00.810Z,442.00
2024-03-24T07:44:00.871Z,442.00
2024-03-24T07:45:00.959Z,441.00
2024-03-24T07:46:01.017Z,441.00
2024-03-24T07:47:01.095Z,440.00
2024-03-24T07:48:01.175Z,437.00
2024-03-24T07:49:01.233Z,435.00
2024-03-24T07:50:01.267Z,437.00
2024-03-24T07:51:01.292Z,438.00
2024-03-24T07:52:01.299Z,440.00
2024-03-24T07:53:01.335Z,441.00
2024-03-24T07:54:01.348Z,443.00
2024-03-24T07:55:01.371Z,440.00
2024-03-24T07:56:01.368Z,441.00
2024-03-24T07:57:01.379Z,438.00
2024-03-24T07:58:01.404Z,436.00
2024-03-24T07:59:01.403Z,437.00
2024-03-24T08:00:01.437Z,435.00
2024-03-24T08:01:01.493Z,437.00
2024-03-24T08:02:01.561Z,437.00
2024-03-24T08:03:01.619Z,437.00
2024-03-24T08:04:01.696Z,436.00
2024-03-24T08:05:01.765Z,436.00
2024-03-24T08:06:01.802Z,437.00
2024-03-24T08:07:01.868Z,437.00
2024-03-24T08:08:01.931Z,440.00
2024-03-24T08:09:01.983Z,438.00
2024-03-24T08:10:02.054Z,437.00
2024-03-24T08:11:02.124Z,436.00
2024-03-24T08:12:02.199Z,437.00
2024-03-24T08:13:02.270Z,438.00
2024-03-24T08:14:02.322Z,438.00
2024-03-24T08:15:02.388Z,438.00
2024-03-24T08:16:02.397Z,436.00
2024-03-24T08:17:02.391Z,438.00
2024-03-24T08:18:02.406Z,437.00
2024-03-24T08:19:02.416Z,435.00
2024-03-24T08:20:02.475Z,433.00
2024-03-24T08:21:02.440Z,433.00
2024-03-24T08:22:02.472Z,433.00
2024-03-24T08:23:02.488Z,434.00
2024-03-24T08:24:02.489Z,434.00
2024-03-24T08:25:02.555Z,433.00
2024-03-24T08:26:02.625Z,436.00
2024-03-24T08:27:02.676Z,439.00
2024-03-24T08:28:02.754Z,440.00
2024-03-24T08:29:02.778Z,441.00
2024-03-24T08:30:02.842Z,439.00
2024-03-24T08:31:02.897Z,437.00
2024-03-24T08:32:02.968Z,438.00
2024-03-24T08:33:03.021Z,435.00
2024-03-24T08:34:03.081Z,436.00
2024-03-24T08:35:03.168Z,433.00
2024-03-24T08:36:03.218Z,433.00
2024-03-24T08:37:03.276Z,435.00
2024-03-24T08:38:03.324Z,435.00
2024-03-24T08:39:03.395Z,434.00
2024-03-24T08:40:03.498Z,437.00
2024-03-24T08:41:03.479Z,436.00
2024-03-24T08:42:03.530Z,434.00
2024-03-24T08:43:03.602Z,432.00
2024-03-24T08:44:03.661Z,429.00
2024-03-24T08:45:03.747Z,429.00
2024-03-24T08:46:03.829Z,427.00
2024-03-24T08:47:03.894Z,425.00
2024-03-24T08:48:03.945Z,426.00
2024-03-24T08:49:04.012Z,427.00
2024-03-24T08:50:04.085Z,429.00
2024-03-24T08:51:04.164Z,432.00
2024-03-24T08:52:04.235Z,433.00
2024-03-24T08:53:04.307Z,434.00
2024-03-24T08:54:04.374Z,434.00
2024-03-24T08:55:04.456Z,435.00
2024-03-24T08:56:04.531Z,433.00
2024-03-24T08:57:04.584Z,432.00
2024-03-24T08:58:04.650Z,433.00
2024-03-24T08:59:04.713Z,433.00
2024-03-24T09:00:04.780Z,434.00
2024-03-24T09:01:04.856Z,434.00
2024-03-24T09:02:04.912Z,433.00
2024-03-24T09:03:04.984Z,434.00
2024-03-24T09:04:05.037Z,432.00
2024-03-24T09:05:05.089Z,430.00
2024-03-24T09:06:05.145Z,430.00
2024-03-24T09:07:05.208Z,430.00
2024-03-24T09:08:05.257Z,428.00
2024-03-24T09:09:05.318Z,429.00
2024-03-24T09:10:05.376Z,428.00
2024-03-24T09:11:05.426Z,428.00
2024-03-24T09:12:05.477Z,429.00
2024-03-24T09:13:05.536Z,429.00
2024-03-24T09:14:05.590Z,429.00
2024-03-24T09:15:05.652Z,429.00
2024-03-24T09:16:05.679Z,431.00
2024-03-24T09:17:05.731Z,431.00
2024-03-24T09:18:05.781Z,428.00
2024-03-24T09:19:05.789Z,427.00
2024-03-24T09:20:05.824Z,426.00
2024-03-24T09:21:05.823Z,428.00
2024-03-24T09:22:05.844Z,429.00
2024-03-24T09:23:05.879Z,430.00
2024-03-24T09:24:05.899Z,430.00
2024-03-24T09:25:05.907Z,431.00
2024-03-24T09:26:05.954Z,432.00
2024-03-24T09:27:05.996Z,432.00
2024-03-24T09:28:06.038Z,432.00
2024-03-24T09:29:06.105Z,431.00
2024-03-24T09:30:06.153Z,429.00
2024-03-24T09:31:06.175Z,430.00
2024-03-24T09:32:06.239Z,430.00
2024-03-24T09:33:06.275Z,431.00
2024-03-24T09:34:06.311Z,428.00
2024-03-24T09:35:13.067Z,425.00
2024-03-24T09:36:07.389Z,426.00
2024-03-24T09:37:06.460Z,424.00
2024-03-24T09:38:06.374Z,423.00
2024-03-24T09:39:06.372Z,423.00
2024-03-24T09:40:06.388Z,425.00
2024-03-24T09:41:06.390Z,425.00
2024-03-24T09:42:06.420Z,425.00
2024-03-24T09:43:06.418Z,426.00
2024-03-24T09:44:06.416Z,426.00
2024-03-24T09:45:06.453Z,427.00
2024-03-24T09:46:06.463Z,428.00
2024-03-24T09:47:06.467Z,428.00
2024-03-24T09:48:06.460Z,427.00
2024-03-24T09:49:06.491Z,427.00
2024-03-24T09:50:06.485Z,425.00
2024-03-24T09:51:06.473Z,423.00
2024-03-24T09:52:06.509Z,422.00
2024-03-24T09:53:06.532Z,422.00
2024-03-24T09:54:06.582Z,424.00
2024-03-24T09:55:06.632Z,423.00
2024-03-24T09:56:06.686Z,422.00
2024-03-24T09:57:06.756Z,419.00
2024-03-24T09:58:11.596Z,419.00
2024-03-24T09:59:07.767Z,418.00
2024-03-24T10:00:06.758Z,417.00
2024-03-24T10:01:06.759Z,418.00
2024-03-24T10:02:06.778Z,418.00
2024-03-24T10:03:06.752Z,418.00
2024-03-24T10:04:06.743Z,420.00
2024-03-24T10:05:06.736Z,422.00
2024-03-24T10:06:06.734Z,424.00
2024-03-24T10:07:06.771Z,423.00
2024-03-24T10:08:06.754Z,424.00
2024-03-24T10:09:06.770Z,425.00
2024-03-24T10:10:06.798Z,425.00
2024-03-24T10:11:06.813Z,425.00
2024-03-24T10:12:06.855Z,424.00
2024-03-24T10:13:06.892Z,426.00
2024-03-24T10:14:06.942Z,424.00
2024-03-24T10:15:07.001Z,423.00
2024-03-24T10:16:07.056Z,423.00
2024-03-24T10:17:07.118Z,422.00
2024-03-24T10:18:07.197Z,419.00
2024-03-24T10:19:07.209Z,418.00
2024-03-24T10:20:07.282Z,418.00
2024-03-24T10:21:07.326Z,417.00
2024-03-24T10:22:07.387Z,417.00
2024-03-24T10:23:07.431Z,414.00
2024-03-24T10:24:07.480Z,412.00
2024-03-24T10:25:07.521Z,411.00
2024-03-24T10:26:07.568Z,410.00
2024-03-24T10:27:07.635Z,410.00
2024-03-24T10:28:07.635Z,412.00
2024-03-24T10:29:07.629Z,411.00
2024-03-24T10:30:07.620Z,411.00
2024-03-24T10:31:07.623Z,415.00
2024-03-24T10:32:08.998Z,413.00
2024-03-24T10:33:08.641Z,413.00
2024-03-24T10:34:07.621Z,415.00
2024-03-24T10:35:07.610Z,416.00
2024-03-24T10:36:07.588Z,416.00
2024-03-24T10:37:07.598Z,415.00
2024-03-24T10:38:07.556Z,414.00
2024-03-24T10:39:07.536Z,415.00
2024-03-24T10:40:07.524Z,415.00
2024-03-24T10:41:07.506Z,413.00
2024-03-24T10:42:07.513Z,413.00
2024-03-24T10:43:07.464Z,415.00
2024-03-24T10:44:07.496Z,413.00
2024-03-24T10:45:07.526Z,413.00
2024-03-24T10:46:07.565Z,413.00
2024-03-24T10:47:07.639Z,412.00
2024-03-24T10:48:07.653Z,416.00
2024-03-24T10:49:07.713Z,417.00
2024-03-24T10:50:07.742Z,415.00
2024-03-24T10:51:07.784Z,416.00
2024-03-24T10:52:07.833Z,416.00
2024-03-24T10:53:07.863Z,415.00
2024-03-24T10:54:07.902Z,416.00
2024-03-24T10:55:07.914Z,415.00
2024-03-24T10:56:08.017Z,417.00
2024-03-24T10:57:08.011Z,419.00
2024-03-24T10:58:08.037Z,420.00
2024-03-24T10:59:10.490Z,420.00
2024-03-24T11:00:08.102Z,422.00
2024-03-24T11:01:08.065Z,422.00
2024-03-24T11:02:08.105Z,421.00
2024-03-24T11:03:08.051Z,420.00
2024-03-24T11:04:08.036Z,418.00
2024-03-24T11:05:08.016Z,418.00
2024-03-24T11:06:08.000Z,417.00
2024-03-24T11:07:07.999Z,416.00
2024-03-24T11:08:07.985Z,417.00
2024-03-24T11:09:07.990Z,417.00
2024-03-24T11:10:07.970Z,418.00
2024-03-24T11:11:07.965Z,418.00
2024-03-24T11:12:07.943Z,418.00
2024-03-24T11:13:07.937Z,416.00
2024-03-24T11:14:07.923Z,415.00
2024-03-24T11:15:07.917Z,414.00
2024-03-24T11:16:07.887Z,412.00
2024-03-24T11:17:07.869Z,414.00
2024-03-24T11:18:07.864Z,412.00
2024-03-24T11:19:07.832Z,412.00
2024-03-24T11:20:07.818Z,411.00
2024-03-24T11:21:07.811Z,411.00
2024-03-24T11:22:07.790Z,410.00
2024-03-24T11:23:07.782Z,410.00
2024-03-24T11:24:07.754Z,410.00
2024-03-24T11:25:07.731Z,411.00
2024-03-24T11:26:07.722Z,411.00
2024-03-24T11:27:07.703Z,412.00
2024-03-24T11:28:07.683Z,414.00
2024-03-24T11:29:07.659Z,415.00
2024-03-24T11:30:07.645Z,416.00
2024-03-24T11:31:07.632Z,414.00
2024-03-24T11:32:07.631Z,417.00
2024-03-24T11:33:07.613Z,418.00
2024-03-24T11:34:07.573Z,416.00
2024-03-24T11:35:07.573Z,417.00
2024-03-24T11:36:07.536Z,419.00
2024-03-24T11:37:07.525Z,418.00
2024-03-24T11:38:07.520Z,415.00
2024-03-24T11:39:07.503Z,412.00
2024-03-24T11:40:07.475Z,412.00
2024-03-24T11:41:07.466Z,414.00
2024-03-24T11:42:07.436Z,414.00
2024-03-24T11:43:07.418Z,411.00
2024-03-24T11:44:07.411Z,411.00
2024-03-24T11:45:07.374Z,412.00
2024-03-24T11:46:07.359Z,412.00
2024-03-24T11:47:07.330Z,413.00
2024-03-24T11:48:07.315Z,414.00
2024-03-24T11:49:07.296Z,414.00
2024-03-24T11:50:07.336Z,414.00
2024-03-24T11:51:07.257Z,415.00
2024-03-24T11:52:07.258Z,415.00
2024-03-24T11:53:07.226Z,416.00
2024-03-24T11:54:07.197Z,416.00
2024-03-24T11:55:07.237Z,415.00
2024-03-24T11:56:07.256Z,416.00
2024-03-24T11:57:07.274Z,415.00
2024-03-24T11:58:07.298Z,416.00
2024-03-24T11:59:07.323Z,414.00
2024-03-24T12:00:07.428Z,414.00
2024-03-24T12:01:07.344Z,413.00
2024-03-24T12:02:07.365Z,414.00
2024-03-24T12:03:07.384Z,412.00
2024-03-24T12:04:07.415Z,411.00
2024-03-24T12:05:07.435Z,411.00
2024-03-24T12:06:07.470Z,411.00
2024-03-24T12:07:07.503Z,410.00
2024-03-24T12:08:07.521Z,409.00
2024-03-24T12:09:07.544Z,407.00
2024-03-24T12:10:07.715Z,406.00
2024-03-24T12:11:07.599Z,407.00
2024-03-24T12:12:07.627Z,406.00
2024-03-24T12:13:07.649Z,407.00
2024-03-24T12:14:07.683Z,409.00
2024-03-24T12:15:07.695Z,410.00
2024-03-24T12:16:07.704Z,411.00
2024-03-24T12:17:10.345Z,410.00
2024-03-24T12:18:07.700Z,410.00
2024-03-24T12:19:07.678Z,417.00
2024-03-24T12:20:07.660Z,425.00
2024-03-24T12:21:07.653Z,430.00
2024-03-24T12:22:07.651Z,431.00
2024-03-24T12:23:07.628Z,433.00
2024-03-24T12:24:07.628Z,433.00
2024-03-24T12:25:07.592Z,433.00
2024-03-24T12:26:07.579Z,435.00
2024-03-24T12:27:07.551Z,437.00
2024-03-24T12:28:07.593Z,438.00
2024-03-24T12:29:07.541Z,439.00